White Hall, West Virginia
Current Conditions -  °F | °C
As of 4:32 AM on Friday 24 Oct 2014 (Local Time) from KCKB Reporting Station
Haze Haze  
Wind Chill: 39°   Ceiling: Unl
Heat Index: 39°   Visibility: 3mi
Dew Point: 39°   Wind: 0mph
Humidity: 100%   Direction: NA
Pressure: 30.1"   Gusts: NA
Location:  39.4675°N, 80.064°W
Report Text: KCKB 240832Z 00000KT 3SM BR FEW002 04/04 A3010 RMK AO2 T00390039
Loading
Personal Weather Stations






























Interactive Weather Map
Tropical Storm Tracking
New forecast layout! Learn more

10-Day Weather Forecast

Advertisements
Track Severe Weather on mobile